Time;durP1;ratioP1;P1;durP2;ratioP2;P2;SDS_P1;SDS_P2;PMS_P1;PMS_P2;Temp;Humidity;BMP_temperature;BMP_pressure;BME280_temperature;BME280_humidity;BME280_pressure;Samples;Min_cycle;Max_cycle;Signal;HPM_P1;HPM_P2
2023/10/23 00:00:52;;;;;;;9.73;8.90;;;13.00;27.50;;;;;;6152902;23;20177;-61
2023/10/23 00:03:18;;;;;;;8.50;7.97;;;13.10;27.10;;;;;;6154652;23;20477;-61
2023/10/23 00:05:44;;;;;;;9.40;8.70;;;13.20;27.00;;;;;;6152721;23;20165;-61
2023/10/23 00:08:10;;;;;;;8.77;8.17;;;13.30;26.70;;;;;;6152735;23;20161;-61
2023/10/23 00:10:35;;;;;;;8.30;7.90;;;13.30;26.90;;;;;;6152792;23;20492;-61
2023/10/23 00:13:01;;;;;;;8.73;8.20;;;13.40;26.40;;;;;;6152706;23;20385;-61
2023/10/23 00:15:26;;;;;;;8.30;7.70;;;13.50;26.00;;;;;;6152664;23;20164;-61
2023/10/23 00:17:52;;;;;;;8.60;8.00;;;13.50;25.80;;;;;;6152469;23;20244;-61
2023/10/23 00:20:18;;;;;;;7.67;7.10;;;13.50;25.60;;;;;;6152560;23;20183;-61
2023/10/23 00:22:43;;;;;;;8.30;7.80;;;13.50;26.10;;;;;;6152797;23;20157;-61
2023/10/23 00:25:09;;;;;;;8.70;8.20;;;13.50;25.60;;;;;;6152756;23;20184;-61
2023/10/23 00:27:34;;;;;;;8.70;8.00;;;13.40;25.80;;;;;;6154377;23;20579;-61
2023/10/23 00:30:00;;;;;;;8.20;7.67;;;13.50;25.60;;;;;;6154781;23;20164;-61
2023/10/23 00:32:26;;;;;;;8.70;7.90;;;13.40;25.60;;;;;;6154617;23;20161;-61
2023/10/23 00:34:52;;;;;;;8.17;7.67;;;13.50;25.60;;;;;;6154640;23;20861;-61
2023/10/23 00:37:17;;;;;;;8.67;7.87;;;13.50;25.60;;;;;;6154432;23;20208;-61
2023/10/23 00:39:43;;;;;;;7.77;7.40;;;13.50;25.60;;;;;;6154505;23;20610;-61
2023/10/23 00:42:09;;;;;;;8.10;7.70;;;13.50;25.60;;;;;;6143695;23;20158;-61
2023/10/23 00:44:34;;;;;;;8.53;7.93;;;13.50;25.60;;;;;;6155075;23;20207;-62
2023/10/23 00:47:00;;;;;;;7.93;7.53;;;13.50;25.60;;;;;;6183296;23;20175;-61
2023/10/23 00:49:26;;;;;;;8.57;8.07;;;13.50;25.60;;;;;;6184733;23;20200;-61
2023/10/23 00:51:52;;;;;;;8.30;7.80;;;13.50;25.60;;;;;;6183408;23;20536;-61
2023/10/23 00:54:19;;;;;;;8.70;8.20;;;13.50;25.60;;;;;;6158282;23;20176;-61
2023/10/23 00:56:45;;;;;;;8.80;8.20;;;13.50;25.60;;;;;;6184536;23;20368;-61
2023/10/23 00:59:12;;;;;;;7.97;7.53;;;13.50;25.60;;;;;;6158449;23;20376;-61
2023/10/23 01:01:38;;;;;;;8.63;7.93;;;13.50;25.60;;;;;;6158386;23;20725;-61
2023/10/23 01:04:05;;;;;;;8.80;8.20;;;13.50;25.60;;;;;;6182745;23;20789;-61
2023/10/23 01:06:31;;;;;;;8.53;7.90;;;13.50;25.60;;;;;;6157968;23;20470;-61
2023/10/23 01:08:58;;;;;;;8.27;7.77;;;13.50;25.60;;;;;;6157954;23;20391;-61
2023/10/23 01:11:23;;;;;;;8.83;8.33;;;13.40;25.50;;;;;;6157766;23;20384;-61
2023/10/23 01:13:49;;;;;;;8.50;7.90;;;13.40;25.50;;;;;;6183365;23;20812;-62
2023/10/23 01:16:15;;;;;;;8.53;8.03;;;13.40;25.50;;;;;;6182727;23;20164;-61
2023/10/23 01:18:40;;;;;;;8.73;8.10;;;13.40;25.50;;;;;;6182509;23;20161;-61
2023/10/23 01:21:06;;;;;;;8.97;8.47;;;13.40;25.50;;;;;;6182758;23;20536;-61
2023/10/23 01:23:36;;;;;;;8.40;7.90;;;13.40;25.50;;;;;;6182823;23;20598;-61
2023/10/23 01:26:02;;;;;;;7.67;7.17;;;13.40;25.50;;;;;;6157967;23;20153;-61
2023/10/23 01:28:27;;;;;;;8.03;7.43;;;13.40;25.50;;;;;;6157589;23;20431;-61
2023/10/23 01:30:53;;;;;;;7.93;7.43;;;13.40;25.50;;;;;;6183001;23;20388;-62
2023/10/23 01:33:19;;;;;;;7.60;7.20;;;13.40;25.50;;;;;;6182873;23;20161;-61
2023/10/23 01:35:44;;;;;;;8.37;7.87;;;13.00;25.60;;;;;;6182406;23;20157;-61
2023/10/23 01:38:12;;;;;;;8.47;7.97;;;12.70;26.70;;;;;;6182321;23;20156;-61
2023/10/23 01:40:38;;;;;;;8.53;7.83;;;12.40;27.40;;;;;;6157886;23;20196;-61
2023/10/23 01:43:04;;;;;;;9.13;8.43;;;12.20;28.10;;;;;;6182493;23;20381;-61
2023/10/23 01:45:30;;;;;;;8.80;8.20;;;12.20;29.00;;;;;;6182234;23;20172;-61
2023/10/23 01:47:55;;;;;;;8.80;8.30;;;12.30;28.80;;;;;;6182404;23;20152;-61
2023/10/23 01:50:21;;;;;;;7.93;7.53;;;12.50;28.20;;;;;;6182225;23;20187;-61
2023/10/23 01:52:46;;;;;;;9.00;8.40;;;12.50;27.60;;;;;;6182677;23;20162;-61
2023/10/23 01:55:12;;;;;;;8.03;7.60;;;12.60;27.60;;;;;;6182453;23;20491;-61
2023/10/23 01:57:38;;;;;;;8.80;8.23;;;12.70;27.30;;;;;;6182018;23;20160;-61
2023/10/23 02:00:05;;;;;;;9.33;8.73;;;12.80;27.10;;;;;;6182729;23;20176;-62
2023/10/23 02:02:33;;;;;;;8.93;8.30;;;12.90;27.00;;;;;;6157691;23;20153;-61
2023/10/23 02:05:00;;;;;;;8.80;8.23;;;13.00;26.80;;;;;;6181056;23;20438;-61
2023/10/23 02:07:27;;;;;;;9.13;8.43;;;13.00;26.40;;;;;;6182668;23;20376;-61
2023/10/23 02:09:53;;;;;;;9.47;8.87;;;13.00;26.50;;;;;;6183562;23;20399;-61
2023/10/23 02:12:19;;;;;;;8.77;8.37;;;13.00;26.50;;;;;;6158574;23;20438;-61
2023/10/23 02:14:44;;;;;;;9.47;8.70;;;13.00;26.50;;;;;;6183527;23;20391;-61
2023/10/23 02:17:10;;;;;;;8.87;8.30;;;13.00;26.40;;;;;;6183168;23;20164;-61
2023/10/23 02:19:36;;;;;;;8.57;7.87;;;13.00;26.20;;;;;;6183321;23;20529;-62
2023/10/23 02:22:01;;;;;;;8.40;7.80;;;13.00;26.40;;;;;;6158543;23;20153;-61
2023/10/23 02:24:27;;;;;;;8.97;8.37;;;13.00;25.90;;;;;;6183280;23;20160;-62
2023/10/23 02:26:54;;;;;;;8.70;8.30;;;13.00;25.80;;;;;;6183297;23;20482;-61
2023/10/23 02:29:19;;;;;;;8.53;7.97;;;12.90;25.90;;;;;;6182984;23;20566;-61
2023/10/23 02:31:45;;;;;;;8.70;8.20;;;12.90;25.50;;;;;;6183348;23;20380;-61
2023/10/23 02:34:11;;;;;;;7.83;7.33;;;12.90;25.40;;;;;;6183247;23;20497;-61
2023/10/23 02:36:37;;;;;;;8.27;7.87;;;12.90;25.20;;;;;;6183314;23;20179;-60
2023/10/23 02:39:03;;;;;;;7.93;7.53;;;12.90;25.20;;;;;;6182990;23;20748;-61
2023/10/23 02:41:32;;;;;;;8.20;7.70;;;12.90;25.20;;;;;;6183138;23;20207;-61
2023/10/23 02:43:57;;;;;;;8.47;7.97;;;12.90;25.20;;;;;;6158389;23;20149;-61
2023/10/23 02:46:23;;;;;;;8.40;7.87;;;12.90;25.20;;;;;;6183151;23;20411;-61
2023/10/23 02:48:49;;;;;;;8.87;8.27;;;12.90;25.20;;;;;;6182989;23;20597;-63
2023/10/23 02:51:14;;;;;;;8.60;8.20;;;12.90;25.30;;;;;;6183160;23;20184;-64
2023/10/23 02:53:40;;;;;;;8.03;7.63;;;12.90;25.30;;;;;;6183141;23;20156;-63
2023/10/23 02:56:13;;;;;;;8.63;8.20;;;12.90;25.40;;;;;;6183066;23;20672;-63
2023/10/23 02:58:38;;;;;;;9.83;9.23;;;12.90;25.20;;;;;;6158035;23;20157;-63
2023/10/23 03:01:20;;;;;;;8.73;8.33;;;12.80;25.50;;;;;;6184680;23;20420;-63
2023/10/23 03:03:46;;;;;;;8.73;8.37;;;12.80;25.60;;;;;;6158351;23;20211;-63
2023/10/23 03:06:12;;;;;;;9.50;9.10;;;12.80;25.70;;;;;;6158158;23;20372;-63
2023/10/23 03:08:37;;;;;;;10.13;9.53;;;12.70;25.70;;;;;;6182779;23;20422;-63
2023/10/23 03:11:05;;;;;;;9.13;8.60;;;12.70;25.80;;;;;;6183001;23;20517;-63
2023/10/23 03:13:31;;;;;;;9.20;8.80;;;12.80;25.80;;;;;;6158194;23;20606;-63
2023/10/23 03:15:57;;;;;;;10.50;9.83;;;12.70;25.80;;;;;;6158119;23;20388;-63
2023/10/23 03:18:22;;;;;;;9.97;9.47;;;12.80;25.60;;;;;;6182602;23;20945;-63
2023/10/23 03:20:48;;;;;;;10.27;9.67;;;12.80;25.30;;;;;;6182842;23;20188;-64
2023/10/23 03:23:14;;;;;;;10.77;9.90;;;12.70;25.50;;;;;;6158435;23;20582;-63
2023/10/23 03:25:42;;;;;;;9.93;9.40;;;12.70;25.50;;;;;;6158105;23;20153;-63
2023/10/23 03:28:08;;;;;;;10.57;9.87;;;12.70;25.50;;;;;;6157879;23;20565;-63
2023/10/23 03:30:34;;;;;;;10.67;9.67;;;12.70;25.30;;;;;;6182684;23;20507;-63
2023/10/23 03:32:59;;;;;;;10.93;10.23;;;12.70;26.10;;;;;;6182805;23;20157;-64
2023/10/23 03:35:25;;;;;;;10.07;9.47;;;12.60;25.60;;;;;;6157857;23;20211;-64
2023/10/23 03:37:51;;;;;;;9.57;9.07;;;12.60;25.90;;;;;;6182684;23;20312;-64
2023/10/23 03:40:16;;;;;;;10.07;9.63;;;12.60;25.80;;;;;;6182642;23;20176;-63
2023/10/23 03:42:42;;;;;;;10.20;9.60;;;12.50;25.90;;;;;;6182706;23;20156;-63
2023/10/23 03:45:08;;;;;;;9.97;9.37;;;12.60;25.80;;;;;;6182525;23;20177;-63
2023/10/23 03:47:34;;;;;;;9.00;8.60;;;12.60;25.70;;;;;;6183927;23;20227;-63
2023/10/23 03:49:59;;;;;;;10.43;9.73;;;12.60;25.90;;;;;;6157884;23;20434;-63
2023/10/23 03:52:25;;;;;;;10.00;9.40;;;12.50;25.90;;;;;;6182687;23;20164;-63
2023/10/23 03:54:50;;;;;;;9.63;9.03;;;12.50;25.80;;;;;;6182603;23;20156;-63
2023/10/23 03:57:16;;;;;;;9.37;8.90;;;12.60;25.90;;;;;;6181987;23;20161;-63
2023/10/23 03:59:42;;;;;;;10.07;9.57;;;12.50;25.70;;;;;;6184373;23;20153;-63
2023/10/23 04:02:08;;;;;;;9.87;9.27;;;12.50;25.90;;;;;;6157716;23;20168;-63
2023/10/23 04:04:34;;;;;;;9.30;8.80;;;12.50;25.70;;;;;;6157764;23;20388;-61
2023/10/23 04:07:00;;;;;;;10.20;9.60;;;12.40;25.50;;;;;;6182464;23;20704;-61
2023/10/23 04:09:29;;;;;;;10.30;9.80;;;12.40;25.60;;;;;;6182626;23;20223;-61
2023/10/23 04:11:55;;;;;;;9.73;9.33;;;12.40;25.70;;;;;;6157926;23;20152;-61
2023/10/23 04:14:21;;;;;;;9.87;9.27;;;12.40;25.80;;;;;;6182299;23;20379;-61
2023/10/23 04:16:47;;;;;;;10.63;10.03;;;12.30;25.60;;;;;;6179299;23;20519;-60
2023/10/23 04:19:12;;;;;;;10.87;10.47;;;12.40;25.80;;;;;;6157253;23;20230;-60
2023/10/23 04:21:40;;;;;;;10.40;9.90;;;12.30;25.70;;;;;;6156607;23;20689;-60
2023/10/23 04:24:09;;;;;;;10.73;10.13;;;12.30;25.60;;;;;;6181995;23;20211;-60
2023/10/23 04:26:35;;;;;;;10.87;10.20;;;12.30;25.60;;;;;;6184357;23;20411;-60
2023/10/23 04:29:01;;;;;;;10.17;9.77;;;12.40;25.60;;;;;;6157289;23;20841;-60
2023/10/23 04:31:27;;;;;;;11.43;10.80;;;12.30;25.70;;;;;;6182262;23;20391;-60
2023/10/23 04:33:52;;;;;;;11.37;10.77;;;12.30;25.60;;;;;;6157479;23;20153;-60
2023/10/23 04:36:18;;;;;;;9.90;9.40;;;12.40;25.60;;;;;;6157359;23;20446;-60
2023/10/23 04:38:43;;;;;;;9.10;8.60;;;12.40;25.50;;;;;;6181911;23;20167;-60
2023/10/23 04:41:09;;;;;;;10.27;9.77;;;12.40;25.40;;;;;;6157374;23;20562;-60
2023/10/23 04:43:35;;;;;;;9.23;8.63;;;12.40;25.10;;;;;;6182079;23;20157;-60
2023/10/23 04:46:01;;;;;;;10.23;9.60;;;12.30;25.80;;;;;;6152592;23;20192;-60
2023/10/23 04:48:27;;;;;;;9.30;8.80;;;12.30;25.90;;;;;;6152176;23;20854;-60
2023/10/23 04:50:58;;;;;;;10.70;10.03;;;12.30;25.80;;;;;;6152495;23;20876;-60
2023/10/23 04:53:24;;;;;;;9.67;9.13;;;12.30;25.80;;;;;;6152630;23;20385;-60
2023/10/23 04:55:49;;;;;;;9.60;9.10;;;12.30;25.90;;;;;;6152146;23;20859;-60
2023/10/23 04:58:15;;;;;;;9.83;9.23;;;12.30;25.80;;;;;;6152297;23;20598;-60
2023/10/23 05:00:41;;;;;;;9.43;9.03;;;12.30;25.40;;;;;;6152180;23;20236;-60
2023/10/23 05:03:07;;;;;;;11.37;10.57;;;12.40;25.40;;;;;;6152361;23;20740;-60
2023/10/23 05:05:33;;;;;;;9.93;9.23;;;12.40;25.40;;;;;;6152243;23;20164;-60
2023/10/23 05:07:59;;;;;;;10.73;10.13;;;12.40;25.30;;;;;;6152077;23;20385;-60
2023/10/23 05:10:25;;;;;;;10.20;9.60;;;12.40;25.30;;;;;;6152298;23;20413;-63
2023/10/23 05:12:51;;;;;;;10.03;9.50;;;12.40;25.20;;;;;;6154186;23;20447;-63
2023/10/23 05:15:17;;;;;;;10.77;9.87;;;12.40;24.80;;;;;;6153949;23;20168;-63
2023/10/23 05:17:43;;;;;;;10.53;9.80;;;12.40;24.90;;;;;;6153236;23;20236;-62
2023/10/23 05:20:09;;;;;;;10.27;9.50;;;12.30;25.10;;;;;;6153805;23;20430;-62
2023/10/23 05:22:35;;;;;;;10.40;9.80;;;12.30;25.30;;;;;;6154033;23;20380;-63
2023/10/23 05:25:01;;;;;;;10.10;9.50;;;12.30;25.20;;;;;;6153852;23;20385;-63
2023/10/23 05:27:26;;;;;;;11.87;10.87;;;12.30;25.10;;;;;;6154032;23;20157;-62
2023/10/23 05:29:52;;;;;;;11.27;10.57;;;12.20;25.30;;;;;;6154103;23;20161;-62
2023/10/23 05:32:18;;;;;;;11.43;10.93;;;12.30;25.30;;;;;;6153955;23;20389;-62
2023/10/23 05:34:44;;;;;;;11.53;10.93;;;12.20;25.30;;;;;;6153171;23;20157;-62
2023/10/23 05:37:10;;;;;;;10.87;10.37;;;12.30;25.50;;;;;;6154107;23;20157;-61
2023/10/23 05:39:36;;;;;;;12.10;11.40;;;12.30;25.50;;;;;;6154259;23;20396;-61
2023/10/23 05:42:02;;;;;;;11.80;11.30;;;12.30;26.00;;;;;;6154609;23;20261;-61
2023/10/23 05:44:27;;;;;;;11.13;10.67;;;12.20;25.50;;;;;;6154682;23;20157;-61
2023/10/23 05:46:53;;;;;;;11.90;11.40;;;12.10;25.60;;;;;;6159022;23;20438;-61
2023/10/23 05:49:19;;;;;;;12.70;12.10;;;12.10;25.60;;;;;;6158912;23;20160;-61
2023/10/23 05:51:45;;;;;;;12.03;11.33;;;12.10;25.50;;;;;;6159299;23;20384;-61
2023/10/23 05:54:11;;;;;;;12.10;11.43;;;12.10;25.50;;;;;;6159356;23;20384;-61
2023/10/23 05:56:37;;;;;;;13.00;12.20;;;12.10;25.60;;;;;;6159428;23;20159;-62
2023/10/23 05:59:03;;;;;;;12.63;11.93;;;12.10;25.50;;;;;;6158957;23;20709;-61
2023/10/23 06:01:29;;;;;;;12.03;11.40;;;12.10;25.80;;;;;;6159043;23;20188;-63
2023/10/23 06:03:55;;;;;;;11.13;10.50;;;12.00;25.80;;;;;;6159066;23;20426;-63
2023/10/23 06:06:21;;;;;;;11.67;10.90;;;12.10;25.90;;;;;;6158700;23;20385;-63
2023/10/23 06:08:47;;;;;;;12.20;11.60;;;12.00;25.80;;;;;;6158507;23;20773;-63
2023/10/23 06:11:13;;;;;;;11.30;10.80;;;12.00;26.00;;;;;;6158926;23;20157;-61
2023/10/23 06:13:39;;;;;;;12.07;11.10;;;12.00;25.80;;;;;;6158677;23;20304;-61
2023/10/23 06:16:05;;;;;;;12.50;11.93;;;12.00;25.90;;;;;;6156408;23;20391;-61
2023/10/23 06:18:34;;;;;;;12.03;11.33;;;12.00;25.90;;;;;;6156079;23;20430;-60
2023/10/23 06:21:04;;;;;;;11.80;11.20;;;12.10;25.80;;;;;;6156376;23;20554;-60
2023/10/23 06:23:37;;;;;;;11.90;11.20;;;12.10;25.70;;;;;;6156639;23;20383;-63
2023/10/23 06:26:04;;;;;;;12.60;11.60;;;12.10;25.60;;;;;;6156425;23;20893;-62
2023/10/23 06:28:30;;;;;;;12.27;11.57;;;12.10;25.50;;;;;;6156212;23;20692;-63
2023/10/23 06:30:56;;;;;;;12.70;11.90;;;12.10;25.50;;;;;;6158289;23;20385;-62
2023/10/23 06:33:22;;;;;;;12.63;11.83;;;12.10;25.70;;;;;;6158590;23;20384;-62
2023/10/23 06:35:57;;;;;;;12.03;11.10;;;12.10;25.60;;;;;;6158522;23;20609;-62
2023/10/23 06:38:23;;;;;;;13.03;12.00;;;12.10;25.50;;;;;;6158242;23;20159;-63
2023/10/23 06:40:49;;;;;;;13.10;11.87;;;12.10;25.60;;;;;;6158342;23;20516;-62
2023/10/23 06:43:14;;;;;;;12.63;11.90;;;12.10;25.50;;;;;;6158530;23;20161;-63
2023/10/23 06:45:40;;;;;;;13.90;12.57;;;12.10;25.70;;;;;;6178267;23;20173;-63
2023/10/23 06:48:06;;;;;;;13.27;12.57;;;12.10;25.80;;;;;;6153301;23;20160;-63
2023/10/23 06:50:32;;;;;;;14.63;13.07;;;12.00;26.00;;;;;;6153562;23;20255;-63
2023/10/23 06:52:57;;;;;;;14.17;13.17;;;12.00;26.40;;;;;;6153475;23;20511;-63
2023/10/23 06:55:24;;;;;;;15.00;14.00;;;12.00;26.20;;;;;;6153279;23;20257;-63
2023/10/23 06:57:50;;;;;;;14.87;13.77;;;12.00;26.40;;;;;;6152429;23;20161;-61
2023/10/23 07:00:16;;;;;;;15.07;13.87;;;12.10;26.20;;;;;;6152958;23;20802;-62
2023/10/23 07:02:42;;;;;;;15.17;13.73;;;12.10;26.10;;;;;;6153355;23;20384;-62
2023/10/23 07:05:07;;;;;;;14.53;13.63;;;12.10;26.00;;;;;;6153410;23;20373;-59
2023/10/23 07:07:33;;;;;;;15.50;14.37;;;12.10;26.40;;;;;;6152533;23;20564;-62
2023/10/23 07:09:59;;;;;;;14.13;13.03;;;12.10;26.20;;;;;;6153415;23;20161;-62
2023/10/23 07:12:25;;;;;;;14.53;13.17;;;12.10;25.90;;;;;;6153397;23;20220;-62
2023/10/23 07:14:50;;;;;;;15.47;14.27;;;12.20;26.00;;;;;;6154937;23;20158;-62
2023/10/23 07:17:17;;;;;;;14.10;13.00;;;12.30;26.10;;;;;;6153017;23;20389;-62
2023/10/23 07:19:42;;;;;;;13.67;12.30;;;12.20;25.30;;;;;;6153409;23;20164;-62
2023/10/23 07:22:08;;;;;;;16.60;14.90;;;12.10;25.60;;;;;;6153181;23;20389;-62
2023/10/23 07:24:33;;;;;;;17.37;16.07;;;11.90;26.10;;;;;;6153217;23;20489;-62
2023/10/23 07:26:59;;;;;;;16.43;15.10;;;11.70;26.70;;;;;;6153290;23;20522;-62
2023/10/23 07:29:25;;;;;;;18.73;17.10;;;11.60;26.90;;;;;;6152850;23;20248;-61
2023/10/23 07:31:50;;;;;;;18.33;16.87;;;11.60;27.10;;;;;;6153139;23;20168;-62
2023/10/23 07:34:16;;;;;;;18.03;16.77;;;11.60;27.00;;;;;;6153068;23;20591;-61
2023/10/23 07:36:42;;;;;;;17.40;15.37;;;11.50;27.10;;;;;;6152940;23;20161;-62
2023/10/23 07:39:08;;;;;;;15.37;14.07;;;11.60;27.60;;;;;;6152914;23;20157;-61
2023/10/23 07:41:34;;;;;;;16.40;15.30;;;11.60;27.30;;;;;;6153146;23;20241;-62
2023/10/23 07:43:59;;;;;;;15.47;14.37;;;11.50;27.50;;;;;;6153075;23;20453;-62
2023/10/23 07:46:25;;;;;;;14.43;13.23;;;11.50;27.60;;;;;;6177721;23;20164;-62
2023/10/23 07:48:50;;;;;;;15.40;14.03;;;11.40;27.80;;;;;;6157741;23;20161;-62
2023/10/23 07:51:16;;;;;;;15.90;14.60;;;11.40;28.00;;;;;;6157989;23;20156;-62
2023/10/23 07:53:42;;;;;;;15.77;14.63;;;11.40;27.90;;;;;;6158065;23;20152;-62
2023/10/23 07:56:08;;;;;;;17.47;15.90;;;11.50;27.80;;;;;;6157771;23;20484;-62
2023/10/23 07:58:34;;;;;;;16.57;15.47;;;11.60;27.70;;;;;;6157678;23;20466;-62
2023/10/23 08:01:12;;;;;;;15.27;14.27;;;11.60;27.70;;;;;;6157599;23;20434;-62
2023/10/23 08:03:38;;;;;;;17.00;15.90;;;11.60;28.00;;;;;;6157877;23;20160;-62
2023/10/23 08:06:05;;;;;;;15.30;14.20;;;11.70;28.10;;;;;;6157828;23;20376;-62
2023/10/23 08:08:33;;;;;;;16.90;15.40;;;11.90;27.60;;;;;;6157584;23;20717;-62
2023/10/23 08:10:59;;;;;;;15.77;14.67;;;12.00;27.60;;;;;;6157912;23;20403;-62
2023/10/23 08:13:25;;;;;;;15.43;14.33;;;12.20;26.90;;;;;;6157666;23;20841;-62
2023/10/23 08:15:51;;;;;;;17.13;14.67;;;12.30;26.60;;;;;;6157737;23;20463;-62
2023/10/23 08:18:17;;;;;;;15.20;14.10;;;12.40;26.60;;;;;;6184033;23;20153;-63
2023/10/23 08:20:43;;;;;;;13.67;12.70;;;12.40;26.30;;;;;;6157662;23;20180;-62
2023/10/23 08:23:08;;;;;;;14.93;13.83;;;12.50;26.70;;;;;;6157832;23;20483;-62
2023/10/23 08:25:34;;;;;;;14.47;13.57;;;12.40;26.00;;;;;;6157855;23;20574;-61
2023/10/23 08:28:00;;;;;;;14.07;13.07;;;12.20;26.60;;;;;;6157565;23;20195;-62
2023/10/23 08:30:25;;;;;;;12.40;11.70;;;12.10;26.80;;;;;;6157733;23;20160;-62
2023/10/23 08:32:51;;;;;;;12.10;11.13;;;12.00;27.10;;;;;;6157932;23;20160;-62
2023/10/23 08:35:19;;;;;;;12.90;11.80;;;12.00;27.30;;;;;;6157686;23;20540;-62
2023/10/23 08:37:44;;;;;;;13.50;12.60;;;12.10;27.30;;;;;;6157708;23;20156;-62
2023/10/23 08:40:11;;;;;;;15.10;13.90;;;12.00;27.50;;;;;;6157981;23;20489;-62
2023/10/23 08:42:37;;;;;;;15.10;13.93;;;12.10;27.30;;;;;;6157730;23;20372;-62
2023/10/23 08:45:03;;;;;;;14.80;14.00;;;12.10;27.20;;;;;;6152518;23;20393;-62
2023/10/23 08:47:29;;;;;;;15.73;14.33;;;12.10;27.20;;;;;;6153252;23;20392;-62
2023/10/23 08:49:59;;;;;;;14.67;13.87;;;12.10;27.40;;;;;;6154788;23;20385;-61
2023/10/23 08:52:32;;;;;;;15.00;14.00;;;12.10;27.70;;;;;;6154662;23;20211;-62
2023/10/23 08:54:59;;;;;;;14.07;12.77;;;12.10;27.50;;;;;;6154629;23;20385;-62
2023/10/23 08:57:25;;;;;;;12.87;12.03;;;12.20;27.50;;;;;;6154327;23;20385;-62
2023/10/23 08:59:50;;;;;;;13.33;12.40;;;12.40;27.60;;;;;;6154388;23;20385;-62
2023/10/23 09:02:16;;;;;;;13.97;12.83;;;12.50;26.70;;;;;;6156078;23;20380;-58
2023/10/23 09:04:42;;;;;;;13.20;12.30;;;12.40;26.80;;;;;;6154565;23;20455;-58
2023/10/23 09:07:07;;;;;;;13.60;12.80;;;12.40;26.80;;;;;;6154248;23;20165;-58
2023/10/23 09:09:33;;;;;;;13.27;12.20;;;12.40;27.00;;;;;;6154513;23;20153;-58
2023/10/23 09:11:59;;;;;;;15.13;13.87;;;12.30;26.90;;;;;;6154450;23;20187;-58
2023/10/23 09:14:26;;;;;;;13.20;12.40;;;12.40;27.30;;;;;;6154285;23;20162;-58
2023/10/23 09:16:53;;;;;;;14.10;13.10;;;12.40;27.60;;;;;;6154376;23;20161;-58
2023/10/23 09:19:37;;;;;;;13.97;12.97;;;12.60;27.60;;;;;;6154056;23;20419;-58
2023/10/23 09:22:04;;;;;;;15.53;13.93;;;12.70;27.10;;;;;;6154373;23;20434;-63
2023/10/23 09:24:30;;;;;;;15.73;14.53;;;12.90;26.80;;;;;;6154396;23;20373;-62
2023/10/23 09:26:56;;;;;;;14.53;13.27;;;12.80;26.40;;;;;;6154222;23;20373;-62
2023/10/23 09:29:26;;;;;;;15.23;13.93;;;12.80;26.80;;;;;;6154040;23;20408;-62
2023/10/23 09:31:57;;;;;;;14.80;13.70;;;12.80;26.70;;;;;;6154142;23;20244;-63
2023/10/23 09:34:23;;;;;;;14.03;12.83;;;12.80;26.70;;;;;;6154258;23;20467;-63
2023/10/23 09:36:50;;;;;;;14.23;12.73;;;12.80;26.70;;;;;;6154289;23;20421;-62
2023/10/23 09:39:16;;;;;;;13.77;12.47;;;12.80;26.90;;;;;;6153838;23;20165;-62
2023/10/23 09:41:44;;;;;;;14.10;12.90;;;12.80;26.90;;;;;;6154064;23;20463;-62
2023/10/23 09:44:13;;;;;;;15.50;14.20;;;12.80;27.10;;;;;;6154023;23;20424;-62
2023/10/23 09:46:39;;;;;;;14.37;13.13;;;12.80;26.90;;;;;;6183240;23;20388;-62
2023/10/23 09:49:06;;;;;;;12.90;12.17;;;12.70;27.10;;;;;;6158777;23;20863;-61
2023/10/23 09:51:43;;;;;;;12.73;11.50;;;12.80;28.10;;;;;;6159546;23;20406;-61
2023/10/23 09:54:22;;;;;;;13.60;12.23;;;12.70;28.20;;;;;;6158716;23;20529;-61
2023/10/23 09:56:51;;;;;;;13.80;12.67;;;12.60;28.30;;;;;;6158926;23;20431;-60
2023/10/23 09:59:27;;;;;;;12.40;11.27;;;12.60;28.20;;;;;;6158121;23;20804;-58
2023/10/23 10:01:57;;;;;;;15.17;13.87;;;12.70;27.90;;;;;;6158745;23;20908;-58
2023/10/23 10:04:57;;;;;;;13.27;12.47;;;12.70;28.30;;;;;;6158343;23;20387;-58
2023/10/23 10:08:03;;;;;;;13.53;12.47;;;12.70;28.70;;;;;;6158289;23;20388;-60
2023/10/23 10:10:30;;;;;;;14.00;12.70;;;12.80;28.80;;;;;;6141252;23;20384;-60
2023/10/23 10:12:56;;;;;;;15.43;14.30;;;12.80;27.50;;;;;;6158889;23;20419;-59
2023/10/23 10:15:23;;;;;;;15.20;13.67;;;12.80;27.40;;;;;;6158828;23;20384;-59
2023/10/23 10:17:50;;;;;;;15.00;13.40;;;12.90;27.20;;;;;;6158418;23;20388;-60
2023/10/23 10:20:21;;;;;;;13.17;12.03;;;12.80;27.40;;;;;;6158273;23;20416;-63
2023/10/23 10:22:56;;;;;;;14.10;12.27;;;12.90;27.50;;;;;;6158411;23;20767;-63
2023/10/23 10:25:23;;;;;;;14.30;12.90;;;13.10;27.30;;;;;;6184907;23;20383;-63
2023/10/23 10:27:57;;;;;;;15.53;13.50;;;13.20;27.10;;;;;;6158519;23;20729;-63
2023/10/23 10:30:42;;;;;;;16.13;14.40;;;13.30;26.70;;;;;;6158733;23;20430;-63
2023/10/23 10:33:09;;;;;;;16.57;15.23;;;13.20;26.30;;;;;;6158484;23;20920;-63
2023/10/23 10:35:34;;;;;;;15.97;14.40;;;13.20;26.30;;;;;;6158364;23;20720;-63
2023/10/23 10:38:00;;;;;;;17.03;15.17;;;13.30;26.30;;;;;;6158507;23;20438;-59
2023/10/23 10:40:26;;;;;;;16.33;14.97;;;13.30;26.40;;;;;;6158365;23;20257;-58
2023/10/23 10:42:55;;;;;;;16.23;14.63;;;13.40;26.20;;;;;;6158480;23;20849;-58
2023/10/23 10:45:21;;;;;;;15.00;13.80;;;13.50;25.60;;;;;;6153299;23;20177;-61
2023/10/23 10:47:53;;;;;;;16.63;15.07;;;13.50;25.60;;;;;;6153271;23;20438;-58
2023/10/23 10:50:36;;;;;;;16.27;15.07;;;13.50;26.20;;;;;;6153414;23;20391;-59
2023/10/23 10:53:04;;;;;;;15.37;14.10;;;13.60;25.70;;;;;;6153311;23;20978;-59
2023/10/23 10:55:30;;;;;;;15.70;14.60;;;13.60;26.20;;;;;;6153272;23;20384;-59
2023/10/23 10:57:57;;;;;;;13.87;12.60;;;13.70;25.80;;;;;;6153150;23;20381;-58
2023/10/23 11:00:23;;;;;;;15.00;13.53;;;13.70;25.70;;;;;;6153112;23;20765;-58
2023/10/23 11:02:49;;;;;;;15.33;14.20;;;13.60;25.60;;;;;;6153330;23;20395;-58
2023/10/23 11:05:15;;;;;;;16.43;14.60;;;13.50;25.80;;;;;;6153225;23;20232;-59
2023/10/23 11:07:40;;;;;;;16.73;15.10;;;13.50;26.30;;;;;;6153269;23;20408;-59
2023/10/23 11:10:07;;;;;;;14.47;13.23;;;13.60;25.90;;;;;;6152935;23;20224;-59
2023/10/23 11:12:33;;;;;;;15.07;14.07;;;13.60;25.90;;;;;;6153235;23;20241;-59
2023/10/23 11:14:59;;;;;;;14.47;13.33;;;13.70;26.10;;;;;;6153259;23;20763;-59
2023/10/23 11:17:25;;;;;;;15.30;14.10;;;13.80;25.80;;;;;;6151406;23;20161;-59
2023/10/23 11:19:51;;;;;;;14.90;13.40;;;13.90;25.90;;;;;;6145707;23;20396;-59
2023/10/23 11:22:24;;;;;;;15.70;14.30;;;14.00;25.50;;;;;;6152295;23;20385;-58
2023/10/23 11:24:49;;;;;;;15.43;14.30;;;14.00;25.70;;;;;;6152300;23;20621;-59
2023/10/23 11:27:15;;;;;;;16.80;15.10;;;13.90;25.50;;;;;;6151817;23;20424;-59
2023/10/23 11:29:46;;;;;;;15.90;14.30;;;13.90;25.80;;;;;;6153595;23;20153;-59
2023/10/23 11:32:12;;;;;;;15.90;14.50;;;13.90;25.90;;;;;;6152065;23;20493;-59
2023/10/23 11:34:38;;;;;;;16.43;14.93;;;13.80;25.80;;;;;;6152305;23;20457;-60
2023/10/23 11:37:06;;;;;;;15.27;14.13;;;13.80;25.80;;;;;;6151819;23;20392;-59
2023/10/23 11:39:32;;;;;;;15.87;14.10;;;13.70;25.70;;;;;;6153043;23;20377;-59
2023/10/23 11:41:58;;;;;;;15.17;13.60;;;13.70;25.70;;;;;;6151889;23;20431;-59
2023/10/23 11:44:29;;;;;;;14.57;13.57;;;13.70;25.80;;;;;;6152134;23;20448;-59
2023/10/23 11:46:57;;;;;;;18.40;13.20;;;13.70;25.80;;;;;;6157094;23;20393;-59
2023/10/23 11:49:22;;;;;;;15.53;13.80;;;13.70;25.80;;;;;;6156175;23;20387;-59
2023/10/23 11:51:49;;;;;;;14.27;12.97;;;13.70;26.00;;;;;;6156722;23;20475;-58
2023/10/23 11:54:16;;;;;;;15.77;14.30;;;13.80;26.20;;;;;;6156920;23;20164;-59
2023/10/23 11:56:43;;;;;;;14.37;13.47;;;13.80;26.40;;;;;;6157142;23;20432;-59
2023/10/23 11:59:14;;;;;;;14.90;13.63;;;13.80;26.50;;;;;;6156399;23;20441;-59
2023/10/23 12:01:39;;;;;;;14.77;13.37;;;13.90;26.30;;;;;;6183462;23;20910;-59
2023/10/23 12:04:06;;;;;;;13.23;12.30;;;14.00;25.90;;;;;;6156949;23;20529;-59
2023/10/23 12:06:33;;;;;;;14.47;13.13;;;14.00;25.90;;;;;;6157558;23;20212;-58
2023/10/23 12:08:58;;;;;;;15.13;13.80;;;14.10;26.00;;;;;;6156618;23;20393;-59
2023/10/23 12:11:25;;;;;;;15.83;14.40;;;14.20;26.00;;;;;;6156737;23;20171;-59
2023/10/23 12:13:50;;;;;;;15.23;13.63;;;14.20;26.00;;;;;;6156916;23;20168;-59
2023/10/23 12:16:16;;;;;;;14.23;13.27;;;14.30;25.80;;;;;;6156782;23;20395;-59
2023/10/23 12:18:43;;;;;;;13.57;12.43;;;14.40;25.60;;;;;;6156294;23;20191;-59
2023/10/23 12:21:09;;;;;;;13.87;12.77;;;14.50;25.40;;;;;;6156737;23;20501;-59
2023/10/23 12:23:34;;;;;;;14.20;13.20;;;14.50;25.70;;;;;;6158626;23;20474;-59
2023/10/23 12:26:00;;;;;;;21.27;19.33;;;14.60;26.10;;;;;;6159413;23;20192;-59
2023/10/23 12:28:26;;;;;;;14.67;13.80;;;14.50;27.60;;;;;;6158589;23;20187;-61
2023/10/23 12:30:51;;;;;;;14.43;13.27;;;14.50;27.50;;;;;;6160078;23;20157;-61